sensor_id;sensor_type;location;lat;lon;timestamp;P1;durP1;ratioP1;P2;durP2;ratioP2
23747;SDS011;12054;53.662;10.126;2023-02-14T00:00:04;36.60;;;16.55;;
23747;SDS011;12054;53.662;10.126;2023-02-14T00:02:30;34.00;;;15.85;;
23747;SDS011;12054;53.662;10.126;2023-02-14T00:04:56;33.72;;;15.85;;
23747;SDS011;12054;53.662;10.126;2023-02-14T00:07:21;36.47;;;15.57;;
23747;SDS011;12054;53.662;10.126;2023-02-14T00:09:47;36.15;;;15.35;;
23747;SDS011;12054;53.662;10.126;2023-02-14T00:12:16;32.40;;;15.80;;
23747;SDS011;12054;53.662;10.126;2023-02-14T00:14:41;33.15;;;15.57;;
23747;SDS011;12054;53.662;10.126;2023-02-14T00:17:25;36.53;;;15.73;;
23747;SDS011;12054;53.662;10.126;2023-02-14T00:19:50;38.67;;;16.23;;
23747;SDS011;12054;53.662;10.126;2023-02-14T00:22:16;31.42;;;15.18;;
23747;SDS011;12054;53.662;10.126;2023-02-14T00:24:42;33.03;;;15.00;;
23747;SDS011;12054;53.662;10.126;2023-02-14T00:27:07;35.42;;;16.42;;
23747;SDS011;12054;53.662;10.126;2023-02-14T00:29:33;31.65;;;15.50;;
23747;SDS011;12054;53.662;10.126;2023-02-14T00:31:59;34.42;;;14.45;;
23747;SDS011;12054;53.662;10.126;2023-02-14T00:34:25;33.40;;;15.57;;
23747;SDS011;12054;53.662;10.126;2023-02-14T00:36:51;33.72;;;16.05;;
23747;SDS011;12054;53.662;10.126;2023-02-14T00:39:17;31.23;;;15.00;;
23747;SDS011;12054;53.662;10.126;2023-02-14T00:41:43;34.00;;;15.68;;
23747;SDS011;12054;53.662;10.126;2023-02-14T00:44:09;31.38;;;15.50;;
23747;SDS011;12054;53.662;10.126;2023-02-14T00:46:36;35.20;;;15.82;;
23747;SDS011;12054;53.662;10.126;2023-02-14T00:49:02;37.58;;;16.20;;
23747;SDS011;12054;53.662;10.126;2023-02-14T00:51:28;32.92;;;15.48;;
23747;SDS011;12054;53.662;10.126;2023-02-14T00:53:53;35.15;;;16.50;;
23747;SDS011;12054;53.662;10.126;2023-02-14T00:56:19;33.50;;;15.95;;
23747;SDS011;12054;53.662;10.126;2023-02-14T00:58:45;35.75;;;16.08;;
23747;SDS011;12054;53.662;10.126;2023-02-14T01:01:10;31.35;;;16.08;;
23747;SDS011;12054;53.662;10.126;2023-02-14T01:03:37;32.60;;;15.07;;
23747;SDS011;12054;53.662;10.126;2023-02-14T01:06:03;34.03;;;15.73;;
23747;SDS011;12054;53.662;10.126;2023-02-14T01:08:29;31.20;;;15.48;;
23747;SDS011;12054;53.662;10.126;2023-02-14T01:10:55;34.97;;;16.48;;
23747;SDS011;12054;53.662;10.126;2023-02-14T01:13:21;30.98;;;15.90;;
23747;SDS011;12054;53.662;10.126;2023-02-14T01:15:48;30.38;;;14.75;;
23747;SDS011;12054;53.662;10.126;2023-02-14T01:18:15;32.63;;;15.13;;
23747;SDS011;12054;53.662;10.126;2023-02-14T01:20:42;33.00;;;15.30;;
23747;SDS011;12054;53.662;10.126;2023-02-14T01:23:08;36.08;;;16.13;;
23747;SDS011;12054;53.662;10.126;2023-02-14T01:25:35;32.00;;;15.18;;
23747;SDS011;12054;53.662;10.126;2023-02-14T01:28:01;32.22;;;15.27;;
23747;SDS011;12054;53.662;10.126;2023-02-14T01:30:27;33.22;;;15.60;;
23747;SDS011;12054;53.662;10.126;2023-02-14T01:32:52;35.13;;;15.77;;
23747;SDS011;12054;53.662;10.126;2023-02-14T01:35:18;33.33;;;15.70;;
23747;SDS011;12054;53.662;10.126;2023-02-14T01:37:43;34.67;;;16.05;;
23747;SDS011;12054;53.662;10.126;2023-02-14T01:40:09;34.13;;;15.68;;
23747;SDS011;12054;53.662;10.126;2023-02-14T01:42:36;34.88;;;16.02;;
23747;SDS011;12054;53.662;10.126;2023-02-14T01:45:03;33.05;;;15.48;;
23747;SDS011;12054;53.662;10.126;2023-02-14T01:47:33;31.95;;;15.98;;
23747;SDS011;12054;53.662;10.126;2023-02-14T01:50:07;31.05;;;15.70;;
23747;SDS011;12054;53.662;10.126;2023-02-14T01:52:36;37.60;;;16.67;;
23747;SDS011;12054;53.662;10.126;2023-02-14T01:55:09;32.05;;;15.95;;
23747;SDS011;12054;53.662;10.126;2023-02-14T01:57:40;35.42;;;17.15;;
23747;SDS011;12054;53.662;10.126;2023-02-14T02:00:09;32.42;;;15.93;;
23747;SDS011;12054;53.662;10.126;2023-02-14T02:02:54;31.40;;;15.55;;
23747;SDS011;12054;53.662;10.126;2023-02-14T02:05:22;34.85;;;15.90;;
23747;SDS011;12054;53.662;10.126;2023-02-14T02:07:49;33.97;;;15.40;;
23747;SDS011;12054;53.662;10.126;2023-02-14T02:10:15;34.97;;;16.30;;
23747;SDS011;12054;53.662;10.126;2023-02-14T02:12:41;33.85;;;16.35;;
23747;SDS011;12054;53.662;10.126;2023-02-14T02:15:08;35.50;;;17.20;;
23747;SDS011;12054;53.662;10.126;2023-02-14T02:20:40;34.78;;;15.63;;
23747;SDS011;12054;53.662;10.126;2023-02-14T02:26:40;33.40;;;15.00;;
23747;SDS011;12054;53.662;10.126;2023-02-14T02:32:39;34.65;;;15.13;;
23747;SDS011;12054;53.662;10.126;2023-02-14T02:35:14;34.15;;;15.40;;
23747;SDS011;12054;53.662;10.126;2023-02-14T02:41:00;35.67;;;16.17;;
23747;SDS011;12054;53.662;10.126;2023-02-14T02:43:43;34.63;;;15.90;;
23747;SDS011;12054;53.662;10.126;2023-02-14T02:46:34;34.75;;;16.05;;
23747;SDS011;12054;53.662;10.126;2023-02-14T02:52:07;35.40;;;16.73;;
23747;SDS011;12054;53.662;10.126;2023-02-14T02:55:01;33.47;;;16.23;;
23747;SDS011;12054;53.662;10.126;2023-02-14T02:57:34;38.50;;;17.95;;
23747;SDS011;12054;53.662;10.126;2023-02-14T03:00:04;35.92;;;16.88;;
23747;SDS011;12054;53.662;10.126;2023-02-14T03:02:35;36.58;;;16.15;;
23747;SDS011;12054;53.662;10.126;2023-02-14T03:05:25;37.47;;;16.48;;
23747;SDS011;12054;53.662;10.126;2023-02-14T03:07:52;34.92;;;15.82;;
23747;SDS011;12054;53.662;10.126;2023-02-14T03:10:19;36.75;;;16.45;;
23747;SDS011;12054;53.662;10.126;2023-02-14T03:16:11;36.10;;;15.88;;
23747;SDS011;12054;53.662;10.126;2023-02-14T03:21:58;36.88;;;16.20;;
23747;SDS011;12054;53.662;10.126;2023-02-14T03:27:29;35.45;;;15.85;;
23747;SDS011;12054;53.662;10.126;2023-02-14T03:33:07;41.60;;;18.05;;
23747;SDS011;12054;53.662;10.126;2023-02-14T03:38:21;34.95;;;16.15;;
23747;SDS011;12054;53.662;10.126;2023-02-14T03:40:57;36.10;;;15.93;;
23747;SDS011;12054;53.662;10.126;2023-02-14T03:45:57;34.83;;;16.40;;
23747;SDS011;12054;53.662;10.126;2023-02-14T03:48:30;38.53;;;17.38;;
23747;SDS011;12054;53.662;10.126;2023-02-14T03:50:58;36.65;;;15.95;;
23747;SDS011;12054;53.662;10.126;2023-02-14T03:53:26;36.03;;;16.17;;
23747;SDS011;12054;53.662;10.126;2023-02-14T03:56:00;35.13;;;15.60;;
23747;SDS011;12054;53.662;10.126;2023-02-14T03:58:42;36.70;;;16.23;;
23747;SDS011;12054;53.662;10.126;2023-02-14T04:01:20;36.90;;;16.75;;
23747;SDS011;12054;53.662;10.126;2023-02-14T04:03:48;38.22;;;16.30;;
23747;SDS011;12054;53.662;10.126;2023-02-14T04:06:16;38.28;;;16.65;;
23747;SDS011;12054;53.662;10.126;2023-02-14T04:08:43;40.33;;;16.98;;
23747;SDS011;12054;53.662;10.126;2023-02-14T04:11:08;35.53;;;15.57;;
23747;SDS011;12054;53.662;10.126;2023-02-14T04:13:34;37.70;;;16.65;;
23747;SDS011;12054;53.662;10.126;2023-02-14T04:16:01;36.22;;;15.85;;
23747;SDS011;12054;53.662;10.126;2023-02-14T04:18:27;34.83;;;15.18;;
23747;SDS011;12054;53.662;10.126;2023-02-14T04:21:11;34.05;;;14.45;;
23747;SDS011;12054;53.662;10.126;2023-02-14T04:23:36;32.60;;;15.07;;
23747;SDS011;12054;53.662;10.126;2023-02-14T04:26:02;36.83;;;16.27;;
23747;SDS011;12054;53.662;10.126;2023-02-14T04:28:28;36.50;;;15.75;;
23747;SDS011;12054;53.662;10.126;2023-02-14T04:30:54;35.40;;;15.98;;
23747;SDS011;12054;53.662;10.126;2023-02-14T04:33:20;34.92;;;15.48;;
23747;SDS011;12054;53.662;10.126;2023-02-14T04:35:46;39.28;;;17.20;;
23747;SDS011;12054;53.662;10.126;2023-02-14T04:38:12;38.40;;;16.27;;
23747;SDS011;12054;53.662;10.126;2023-02-14T04:40:38;38.88;;;16.48;;
23747;SDS011;12054;53.662;10.126;2023-02-14T04:43:03;41.08;;;17.73;;
23747;SDS011;12054;53.662;10.126;2023-02-14T04:45:31;34.70;;;15.68;;
23747;SDS011;12054;53.662;10.126;2023-02-14T04:47:56;37.55;;;16.20;;
23747;SDS011;12054;53.662;10.126;2023-02-14T04:50:22;37.30;;;16.65;;
23747;SDS011;12054;53.662;10.126;2023-02-14T04:52:49;38.08;;;17.02;;
23747;SDS011;12054;53.662;10.126;2023-02-14T04:55:15;33.20;;;15.70;;
23747;SDS011;12054;53.662;10.126;2023-02-14T04:57:41;38.92;;;15.77;;
23747;SDS011;12054;53.662;10.126;2023-02-14T05:00:07;39.08;;;17.25;;
23747;SDS011;12054;53.662;10.126;2023-02-14T05:02:33;40.45;;;17.35;;
23747;SDS011;12054;53.662;10.126;2023-02-14T05:04:59;43.42;;;17.50;;
23747;SDS011;12054;53.662;10.126;2023-02-14T05:07:24;39.83;;;17.13;;
23747;SDS011;12054;53.662;10.126;2023-02-14T05:09:50;38.97;;;17.02;;
23747;SDS011;12054;53.662;10.126;2023-02-14T05:12:15;40.97;;;17.95;;
23747;SDS011;12054;53.662;10.126;2023-02-14T05:14:41;39.75;;;17.55;;
23747;SDS011;12054;53.662;10.126;2023-02-14T05:17:07;37.17;;;16.88;;
23747;SDS011;12054;53.662;10.126;2023-02-14T05:19:32;39.17;;;17.60;;
23747;SDS011;12054;53.662;10.126;2023-02-14T05:21:58;39.13;;;16.98;;
23747;SDS011;12054;53.662;10.126;2023-02-14T05:24:23;37.42;;;16.83;;
23747;SDS011;12054;53.662;10.126;2023-02-14T05:26:49;37.42;;;16.60;;
23747;SDS011;12054;53.662;10.126;2023-02-14T05:29:14;39.35;;;16.73;;
23747;SDS011;12054;53.662;10.126;2023-02-14T05:31:40;36.90;;;15.60;;
23747;SDS011;12054;53.662;10.126;2023-02-14T05:34:05;40.08;;;16.60;;
23747;SDS011;12054;53.662;10.126;2023-02-14T05:36:31;40.30;;;17.13;;
23747;SDS011;12054;53.662;10.126;2023-02-14T05:38:56;36.92;;;16.08;;
23747;SDS011;12054;53.662;10.126;2023-02-14T05:41:22;40.88;;;16.60;;
23747;SDS011;12054;53.662;10.126;2023-02-14T05:43:48;39.63;;;18.27;;
23747;SDS011;12054;53.662;10.126;2023-02-14T05:46:15;43.63;;;17.80;;
23747;SDS011;12054;53.662;10.126;2023-02-14T05:48:44;37.25;;;17.10;;
23747;SDS011;12054;53.662;10.126;2023-02-14T05:51:13;40.30;;;17.80;;
23747;SDS011;12054;53.662;10.126;2023-02-14T05:53:39;41.17;;;17.70;;
23747;SDS011;12054;53.662;10.126;2023-02-14T05:56:08;39.63;;;16.98;;
23747;SDS011;12054;53.662;10.126;2023-02-14T05:58:34;39.67;;;16.52;;
23747;SDS011;12054;53.662;10.126;2023-02-14T06:00:59;41.58;;;18.33;;
23747;SDS011;12054;53.662;10.126;2023-02-14T06:03:25;42.75;;;17.33;;
23747;SDS011;12054;53.662;10.126;2023-02-14T06:05:51;41.25;;;16.73;;
23747;SDS011;12054;53.662;10.126;2023-02-14T06:08:16;39.63;;;17.27;;
23747;SDS011;12054;53.662;10.126;2023-02-14T06:10:42;40.65;;;16.85;;
23747;SDS011;12054;53.662;10.126;2023-02-14T06:13:08;42.28;;;17.30;;
23747;SDS011;12054;53.662;10.126;2023-02-14T06:15:34;40.38;;;17.63;;
23747;SDS011;12054;53.662;10.126;2023-02-14T06:18:01;36.30;;;16.88;;
23747;SDS011;12054;53.662;10.126;2023-02-14T06:20:27;38.90;;;17.40;;
23747;SDS011;12054;53.662;10.126;2023-02-14T06:22:53;37.92;;;16.95;;
23747;SDS011;12054;53.662;10.126;2023-02-14T06:25:19;36.47;;;15.95;;
23747;SDS011;12054;53.662;10.126;2023-02-14T06:27:45;36.35;;;16.85;;
23747;SDS011;12054;53.662;10.126;2023-02-14T06:30:11;36.50;;;16.55;;
23747;SDS011;12054;53.662;10.126;2023-02-14T06:32:37;45.10;;;18.02;;
23747;SDS011;12054;53.662;10.126;2023-02-14T06:35:03;39.28;;;17.80;;
23747;SDS011;12054;53.662;10.126;2023-02-14T06:37:29;39.70;;;17.85;;
23747;SDS011;12054;53.662;10.126;2023-02-14T06:39:55;40.53;;;16.45;;
23747;SDS011;12054;53.662;10.126;2023-02-14T06:42:20;43.00;;;18.15;;
23747;SDS011;12054;53.662;10.126;2023-02-14T06:44:46;37.67;;;17.40;;
23747;SDS011;12054;53.662;10.126;2023-02-14T06:47:11;45.92;;;18.15;;
23747;SDS011;12054;53.662;10.126;2023-02-14T06:49:37;39.92;;;17.58;;
23747;SDS011;12054;53.662;10.126;2023-02-14T06:52:04;48.17;;;19.33;;
23747;SDS011;12054;53.662;10.126;2023-02-14T06:54:30;42.83;;;17.45;;
23747;SDS011;12054;53.662;10.126;2023-02-14T06:56:55;39.53;;;17.08;;
23747;SDS011;12054;53.662;10.126;2023-02-14T06:59:21;40.97;;;18.77;;
23747;SDS011;12054;53.662;10.126;2023-02-14T07:01:47;37.50;;;16.90;;
23747;SDS011;12054;53.662;10.126;2023-02-14T07:04:12;40.13;;;17.70;;
23747;SDS011;12054;53.662;10.126;2023-02-14T07:06:38;42.25;;;17.55;;
23747;SDS011;12054;53.662;10.126;2023-02-14T07:09:03;42.28;;;17.30;;
23747;SDS011;12054;53.662;10.126;2023-02-14T07:11:29;40.60;;;17.80;;
23747;SDS011;12054;53.662;10.126;2023-02-14T07:13:55;40.72;;;18.20;;
23747;SDS011;12054;53.662;10.126;2023-02-14T07:16:21;38.67;;;17.02;;
23747;SDS011;12054;53.662;10.126;2023-02-14T07:18:46;42.88;;;18.27;;
23747;SDS011;12054;53.662;10.126;2023-02-14T07:21:12;40.08;;;18.88;;
23747;SDS011;12054;53.662;10.126;2023-02-14T07:23:38;39.58;;;18.10;;
23747;SDS011;12054;53.662;10.126;2023-02-14T07:26:04;40.92;;;17.55;;
23747;SDS011;12054;53.662;10.126;2023-02-14T07:28:29;46.92;;;17.95;;
23747;SDS011;12054;53.662;10.126;2023-02-14T07:30:59;45.72;;;18.10;;
23747;SDS011;12054;53.662;10.126;2023-02-14T07:33:25;45.15;;;18.23;;
23747;SDS011;12054;53.662;10.126;2023-02-14T07:35:50;44.17;;;18.35;;
23747;SDS011;12054;53.662;10.126;2023-02-14T07:38:16;42.58;;;17.70;;
23747;SDS011;12054;53.662;10.126;2023-02-14T07:40:41;44.20;;;18.63;;
23747;SDS011;12054;53.662;10.126;2023-02-14T07:43:07;40.88;;;18.42;;
23747;SDS011;12054;53.662;10.126;2023-02-14T07:45:32;46.33;;;18.45;;
23747;SDS011;12054;53.662;10.126;2023-02-14T07:47:58;44.78;;;18.42;;
23747;SDS011;12054;53.662;10.126;2023-02-14T07:50:26;40.80;;;17.25;;
23747;SDS011;12054;53.662;10.126;2023-02-14T07:52:52;48.28;;;19.17;;
23747;SDS011;12054;53.662;10.126;2023-02-14T07:55:19;43.28;;;18.27;;
23747;SDS011;12054;53.662;10.126;2023-02-14T07:57:48;44.70;;;18.85;;
23747;SDS011;12054;53.662;10.126;2023-02-14T08:00:14;40.85;;;18.45;;
23747;SDS011;12054;53.662;10.126;2023-02-14T08:02:40;42.90;;;18.63;;
23747;SDS011;12054;53.662;10.126;2023-02-14T08:05:06;44.42;;;18.42;;
23747;SDS011;12054;53.662;10.126;2023-02-14T08:07:32;44.67;;;18.60;;
23747;SDS011;12054;53.662;10.126;2023-02-14T08:09:57;41.50;;;17.67;;
23747;SDS011;12054;53.662;10.126;2023-02-14T08:12:23;42.17;;;18.38;;
23747;SDS011;12054;53.662;10.126;2023-02-14T08:15:07;39.40;;;17.48;;
23747;SDS011;12054;53.662;10.126;2023-02-14T08:17:51;38.08;;;16.48;;
23747;SDS011;12054;53.662;10.126;2023-02-14T08:20:17;40.08;;;17.83;;
23747;SDS011;12054;53.662;10.126;2023-02-14T08:22:42;42.72;;;17.85;;
23747;SDS011;12054;53.662;10.126;2023-02-14T08:25:08;36.75;;;16.80;;
23747;SDS011;12054;53.662;10.126;2023-02-14T08:27:34;42.10;;;17.73;;
23747;SDS011;12054;53.662;10.126;2023-02-14T08:29:59;41.53;;;17.05;;
23747;SDS011;12054;53.662;10.126;2023-02-14T08:32:25;39.70;;;16.92;;
23747;SDS011;12054;53.662;10.126;2023-02-14T08:34:51;43.53;;;18.30;;
23747;SDS011;12054;53.662;10.126;2023-02-14T08:37:16;41.40;;;17.38;;
23747;SDS011;12054;53.662;10.126;2023-02-14T08:39:41;39.38;;;17.55;;
23747;SDS011;12054;53.662;10.126;2023-02-14T08:42:07;33.15;;;16.58;;
23747;SDS011;12054;53.662;10.126;2023-02-14T08:44:33;37.78;;;16.58;;
23747;SDS011;12054;53.662;10.126;2023-02-14T08:46:59;36.10;;;15.77;;
23747;SDS011;12054;53.662;10.126;2023-02-14T08:49:24;34.78;;;15.55;;
23747;SDS011;12054;53.662;10.126;2023-02-14T08:51:50;31.20;;;15.95;;
23747;SDS011;12054;53.662;10.126;2023-02-14T08:54:15;35.40;;;16.58;;
23747;SDS011;12054;53.662;10.126;2023-02-14T08:56:41;31.25;;;16.05;;
23747;SDS011;12054;53.662;10.126;2023-02-14T08:59:06;32.53;;;15.43;;
23747;SDS011;12054;53.662;10.126;2023-02-14T09:01:32;34.67;;;16.65;;
23747;SDS011;12054;53.662;10.126;2023-02-14T09:04:00;32.33;;;15.02;;
23747;SDS011;12054;53.662;10.126;2023-02-14T09:06:26;32.83;;;15.65;;
23747;SDS011;12054;53.662;10.126;2023-02-14T09:08:51;33.13;;;14.95;;
23747;SDS011;12054;53.662;10.126;2023-02-14T09:11:19;30.50;;;15.55;;
23747;SDS011;12054;53.662;10.126;2023-02-14T09:13:47;30.10;;;14.65;;
23747;SDS011;12054;53.662;10.126;2023-02-14T09:16:14;31.50;;;15.05;;
23747;SDS011;12054;53.662;10.126;2023-02-14T09:18:42;27.98;;;14.00;;
23747;SDS011;12054;53.662;10.126;2023-02-14T09:21:11;26.60;;;13.05;;
23747;SDS011;12054;53.662;10.126;2023-02-14T09:23:39;23.95;;;12.13;;
23747;SDS011;12054;53.662;10.126;2023-02-14T09:26:05;24.45;;;12.65;;
23747;SDS011;12054;53.662;10.126;2023-02-14T09:28:33;24.48;;;13.23;;
23747;SDS011;12054;53.662;10.126;2023-02-14T09:31:06;24.95;;;11.80;;
23747;SDS011;12054;53.662;10.126;2023-02-14T09:33:37;24.05;;;12.73;;
23747;SDS011;12054;53.662;10.126;2023-02-14T09:36:03;25.13;;;13.52;;
23747;SDS011;12054;53.662;10.126;2023-02-14T09:38:41;22.75;;;12.38;;
23747;SDS011;12054;53.662;10.126;2023-02-14T09:41:08;24.30;;;12.85;;
23747;SDS011;12054;53.662;10.126;2023-02-14T09:46:28;23.38;;;12.35;;
23747;SDS011;12054;53.662;10.126;2023-02-14T09:48:58;23.40;;;12.43;;
23747;SDS011;12054;53.662;10.126;2023-02-14T09:51:26;26.25;;;12.23;;
23747;SDS011;12054;53.662;10.126;2023-02-14T09:53:57;25.15;;;13.02;;
23747;SDS011;12054;53.662;10.126;2023-02-14T09:56:40;26.85;;;13.65;;
23747;SDS011;12054;53.662;10.126;2023-02-14T10:02:01;23.25;;;13.15;;
23747;SDS011;12054;53.662;10.126;2023-02-14T10:04:56;23.63;;;13.18;;
23747;SDS011;12054;53.662;10.126;2023-02-14T10:10:24;23.98;;;12.82;;
23747;SDS011;12054;53.662;10.126;2023-02-14T10:13:06;22.80;;;12.80;;
23747;SDS011;12054;53.662;10.126;2023-02-14T10:15:45;24.25;;;12.25;;
23747;SDS011;12054;53.662;10.126;2023-02-14T10:18:17;24.83;;;12.70;;
23747;SDS011;12054;53.662;10.126;2023-02-14T10:20:52;24.73;;;13.52;;
23747;SDS011;12054;53.662;10.126;2023-02-14T10:25:54;21.98;;;12.75;;
23747;SDS011;12054;53.662;10.126;2023-02-14T10:28:29;23.38;;;12.63;;
23747;SDS011;12054;53.662;10.126;2023-02-14T10:33:52;23.60;;;12.93;;
23747;SDS011;12054;53.662;10.126;2023-02-14T10:41:55;25.67;;;13.90;;
23747;SDS011;12054;53.662;10.126;2023-02-14T10:49:51;24.85;;;13.20;;
23747;SDS011;12054;53.662;10.126;2023-02-14T10:52:51;25.42;;;13.43;;
23747;SDS011;12054;53.662;10.126;2023-02-14T10:58:09;21.40;;;12.30;;
23747;SDS011;12054;53.662;10.126;2023-02-14T11:00:39;24.50;;;14.48;;
23747;SDS011;12054;53.662;10.126;2023-02-14T11:03:16;25.15;;;13.73;;
23747;SDS011;12054;53.662;10.126;2023-02-14T11:05:43;24.65;;;13.85;;
23747;SDS011;12054;53.662;10.126;2023-02-14T11:11:09;25.83;;;14.05;;
23747;SDS011;12054;53.662;10.126;2023-02-14T11:13:39;23.90;;;13.52;;
23747;SDS011;12054;53.662;10.126;2023-02-14T11:16:06;25.83;;;13.38;;
23747;SDS011;12054;53.662;10.126;2023-02-14T11:18:34;26.10;;;14.02;;
23747;SDS011;12054;53.662;10.126;2023-02-14T11:21:07;23.92;;;12.45;;
23747;SDS011;12054;53.662;10.126;2023-02-14T11:23:46;24.17;;;12.95;;
23747;SDS011;12054;53.662;10.126;2023-02-14T11:26:15;25.50;;;14.32;;
23747;SDS011;12054;53.662;10.126;2023-02-14T11:28:57;26.50;;;14.45;;
23747;SDS011;12054;53.662;10.126;2023-02-14T11:31:29;23.95;;;13.85;;
23747;SDS011;12054;53.662;10.126;2023-02-14T11:33:57;25.00;;;13.30;;
23747;SDS011;12054;53.662;10.126;2023-02-14T11:36:26;27.42;;;12.95;;
23747;SDS011;12054;53.662;10.126;2023-02-14T11:38:57;23.48;;;14.27;;
23747;SDS011;12054;53.662;10.126;2023-02-14T11:41:49;23.63;;;13.65;;
23747;SDS011;12054;53.662;10.126;2023-02-14T11:44:24;27.40;;;14.20;;
23747;SDS011;12054;53.662;10.126;2023-02-14T11:46:52;28.42;;;13.80;;
23747;SDS011;12054;53.662;10.126;2023-02-14T11:51:57;27.83;;;13.75;;
23747;SDS011;12054;53.662;10.126;2023-02-14T11:57:00;22.88;;;13.40;;
23747;SDS011;12054;53.662;10.126;2023-02-14T11:59:45;22.88;;;13.43;;
23747;SDS011;12054;53.662;10.126;2023-02-14T12:04:59;28.90;;;14.45;;
23747;SDS011;12054;53.662;10.126;2023-02-14T12:07:29;25.35;;;13.75;;
23747;SDS011;12054;53.662;10.126;2023-02-14T12:10:05;22.52;;;13.27;;
23747;SDS011;12054;53.662;10.126;2023-02-14T12:12:56;21.85;;;12.63;;
23747;SDS011;12054;53.662;10.126;2023-02-14T12:15:37;23.67;;;13.80;;
23747;SDS011;12054;53.662;10.126;2023-02-14T12:23:35;24.45;;;13.85;;
23747;SDS011;12054;53.662;10.126;2023-02-14T12:31:53;24.10;;;13.35;;
23747;SDS011;12054;53.662;10.126;2023-02-14T12:34:24;25.50;;;13.63;;
23747;SDS011;12054;53.662;10.126;2023-02-14T12:57:46;25.90;;;14.45;;
23747;SDS011;12054;53.662;10.126;2023-02-14T13:00:19;22.88;;;12.85;;
23747;SDS011;12054;53.662;10.126;2023-02-14T13:03:22;26.15;;;14.38;;
23747;SDS011;12054;53.662;10.126;2023-02-14T13:17:04;23.35;;;13.57;;
23747;SDS011;12054;53.662;10.126;2023-02-14T13:22:24;25.10;;;14.35;;
23747;SDS011;12054;53.662;10.126;2023-02-14T13:24:54;26.58;;;14.68;;
23747;SDS011;12054;53.662;10.126;2023-02-14T13:27:33;26.20;;;14.52;;
23747;SDS011;12054;53.662;10.126;2023-02-14T13:30:21;22.17;;;12.35;;
23747;SDS011;12054;53.662;10.126;2023-02-14T13:32:52;22.23;;;13.00;;
23747;SDS011;12054;53.662;10.126;2023-02-14T13:35:21;23.45;;;14.13;;
23747;SDS011;12054;53.662;10.126;2023-02-14T13:37:53;24.23;;;13.75;;
23747;SDS011;12054;53.662;10.126;2023-02-14T13:40:21;22.55;;;13.23;;
23747;SDS011;12054;53.662;10.126;2023-02-14T13:48:14;22.33;;;12.80;;
23747;SDS011;12054;53.662;10.126;2023-02-14T13:53:36;23.52;;;13.65;;
23747;SDS011;12054;53.662;10.126;2023-02-14T13:58:55;23.40;;;13.43;;
23747;SDS011;12054;53.662;10.126;2023-02-14T14:01:42;25.27;;;13.50;;
23747;SDS011;12054;53.662;10.126;2023-02-14T14:15:16;25.73;;;13.68;;
23747;SDS011;12054;53.662;10.126;2023-02-14T14:20:55;22.85;;;13.13;;
23747;SDS011;12054;53.662;10.126;2023-02-14T14:23:29;25.65;;;13.95;;
23747;SDS011;12054;53.662;10.126;2023-02-14T14:25:57;26.10;;;13.68;;
23747;SDS011;12054;53.662;10.126;2023-02-14T14:28:24;25.50;;;13.52;;
23747;SDS011;12054;53.662;10.126;2023-02-14T14:30:52;24.67;;;14.23;;
23747;SDS011;12054;53.662;10.126;2023-02-14T14:33:26;26.88;;;14.95;;
23747;SDS011;12054;53.662;10.126;2023-02-14T14:35:55;24.35;;;13.77;;
23747;SDS011;12054;53.662;10.126;2023-02-14T14:38:23;24.75;;;13.63;;
23747;SDS011;12054;53.662;10.126;2023-02-14T14:40:50;30.75;;;13.77;;
23747;SDS011;12054;53.662;10.126;2023-02-14T14:45:53;26.73;;;14.40;;
23747;SDS011;12054;53.662;10.126;2023-02-14T14:48:24;25.30;;;13.50;;
23747;SDS011;12054;53.662;10.126;2023-02-14T14:50:55;23.25;;;13.10;;
23747;SDS011;12054;53.662;10.126;2023-02-14T14:56:29;26.05;;;14.35;;
23747;SDS011;12054;53.662;10.126;2023-02-14T14:58:57;29.90;;;15.82;;
23747;SDS011;12054;53.662;10.126;2023-02-14T15:02:00;28.08;;;15.32;;
23747;SDS011;12054;53.662;10.126;2023-02-14T15:04:27;31.30;;;16.40;;
23747;SDS011;12054;53.662;10.126;2023-02-14T15:07:23;31.10;;;16.42;;
23747;SDS011;12054;53.662;10.126;2023-02-14T15:09:51;31.65;;;15.55;;
23747;SDS011;12054;53.662;10.126;2023-02-14T15:12:19;27.42;;;14.85;;
23747;SDS011;12054;53.662;10.126;2023-02-14T15:15:06;30.20;;;15.73;;
23747;SDS011;12054;53.662;10.126;2023-02-14T15:17:35;28.70;;;15.35;;
23747;SDS011;12054;53.662;10.126;2023-02-14T15:20:09;26.25;;;14.82;;
23747;SDS011;12054;53.662;10.126;2023-02-14T15:22:43;27.48;;;14.07;;
23747;SDS011;12054;53.662;10.126;2023-02-14T15:25:33;26.45;;;14.80;;
23747;SDS011;12054;53.662;10.126;2023-02-14T15:27:58;27.00;;;14.10;;
23747;SDS011;12054;53.662;10.126;2023-02-14T15:30:31;24.98;;;13.88;;
23747;SDS011;12054;53.662;10.126;2023-02-14T15:33:01;24.30;;;12.60;;
23747;SDS011;12054;53.662;10.126;2023-02-14T15:35:30;27.08;;;14.70;;
23747;SDS011;12054;53.662;10.126;2023-02-14T15:37:57;23.30;;;13.55;;
23747;SDS011;12054;53.662;10.126;2023-02-14T15:40:27;28.20;;;14.43;;
23747;SDS011;12054;53.662;10.126;2023-02-14T15:43:11;31.27;;;15.07;;
23747;SDS011;12054;53.662;10.126;2023-02-14T15:45:53;25.08;;;14.50;;
23747;SDS011;12054;53.662;10.126;2023-02-14T15:48:31;28.05;;;15.20;;
23747;SDS011;12054;53.662;10.126;2023-02-14T15:50:58;27.60;;;13.88;;
23747;SDS011;12054;53.662;10.126;2023-02-14T15:53:34;24.85;;;13.40;;
23747;SDS011;12054;53.662;10.126;2023-02-14T15:56:11;27.58;;;13.73;;
23747;SDS011;12054;53.662;10.126;2023-02-14T15:58:45;27.35;;;14.40;;
23747;SDS011;12054;53.662;10.126;2023-02-14T16:01:11;25.35;;;14.38;;
23747;SDS011;12054;53.662;10.126;2023-02-14T16:03:38;25.65;;;14.15;;
23747;SDS011;12054;53.662;10.126;2023-02-14T16:06:11;26.60;;;14.98;;
23747;SDS011;12054;53.662;10.126;2023-02-14T16:08:59;22.33;;;13.50;;
23747;SDS011;12054;53.662;10.126;2023-02-14T16:11:30;27.63;;;13.95;;
23747;SDS011;12054;53.662;10.126;2023-02-14T16:16:56;25.55;;;13.75;;
23747;SDS011;12054;53.662;10.126;2023-02-14T16:19:30;29.00;;;14.38;;
23747;SDS011;12054;53.662;10.126;2023-02-14T16:21:56;28.63;;;15.15;;
23747;SDS011;12054;53.662;10.126;2023-02-14T16:24:22;26.58;;;13.45;;
23747;SDS011;12054;53.662;10.126;2023-02-14T16:26:47;28.10;;;14.90;;
23747;SDS011;12054;53.662;10.126;2023-02-14T16:29:14;27.42;;;13.75;;
23747;SDS011;12054;53.662;10.126;2023-02-14T16:31:41;28.83;;;14.27;;
23747;SDS011;12054;53.662;10.126;2023-02-14T16:34:16;26.15;;;13.60;;
23747;SDS011;12054;53.662;10.126;2023-02-14T16:36:41;27.35;;;14.55;;
23747;SDS011;12054;53.662;10.126;2023-02-14T16:39:20;27.65;;;14.57;;
23747;SDS011;12054;53.662;10.126;2023-02-14T16:41:49;23.58;;;13.30;;
23747;SDS011;12054;53.662;10.126;2023-02-14T16:44:16;29.00;;;14.32;;
23747;SDS011;12054;53.662;10.126;2023-02-14T16:46:43;23.70;;;13.63;;
23747;SDS011;12054;53.662;10.126;2023-02-14T16:49:13;25.08;;;13.75;;
23747;SDS011;12054;53.662;10.126;2023-02-14T16:51:43;27.85;;;14.65;;
23747;SDS011;12054;53.662;10.126;2023-02-14T16:54:25;28.67;;;14.90;;